Terminal Aerodrome Forecast
Issued by NWS

Current Version | Previous Version | Text Only | Print | Product List | Glossary On
Versions: 1 2 3 4 5 6 7 8 9 10 11 12 13 14 15
614
FTUS43 KAPX 211120
TAFTVC
TAF
KTVC 211120Z 2112/2212 00000KT P6SM BKN120
     FM211600 00000KT P6SM BKN060
     FM211800 VRB03KT P6SM SCT060
     FM220000 00000KT P6SM SCT250
     FM220800 00000KT 3SM BR SCT120=

USA.gov is the U.S. government's official web portal to all federal, state and local government web resources and services.